Chinggis Khaan International Airport
ZMUB : now visible

Airfield :











YOU CAN JOIN US ON...

 
LOGIN :

Register | Disclaimer

   EN    FR    IT 

 









Legend :    VFR   Marginal VFR   IFR   Intensive IFR   Very Intensive IFR
Visi :
Ceiling :
>= 8 km
>= 3000ft
5 to 8 km
1000 to 3000 ft
1500m to 5 km
500 to 1000 ft
800 to 1500m
200 to 500 ft
< 800m
< 200 ft
Symbols :   Thunderstorms  Fog  Heavy snow  Heavy precipitations  Wind > 20 kt






- Airport Elevation : 4364 ft
- IATA code : ULN


ZMUB - Chinggis Khaan International

CURRENT METAR :
  • 180100Z VRB01MPS 5000NW BR FU NSC M29/M32 Q1013 NOSIG RMK QFE653.2 68 NW MO

EXPIRED METARs :
  • 180030Z 00000MPS 4000NW BR FU NSC M28/M31 Q1013 NOSIG RMK QFE652.8 73 NW MO
  • 180000Z 00000MPS 6000NW NSC M28/M32 Q1013 NOSIG RMK QFE652.7 71 NT
  • 172330Z VRB01MPS 6000NW NSC M30/M34 Q1012 NOSIG RMK QFE652.4 71 NT
  • 172300Z VRB01MPS 6000NW NSC M29/M32 Q1012 NOSIG RMK QFE652.4 71 NT
  • 172230Z 00000MPS 6000NW NSC M30/M35 Q1012 NOSIG RMK QFE652.3 65 NT

TAF TAF ZMUB
Valid from the 18 at 00:00 until the 19 at 06:00 UTC


172240Z 1800/1906 VRB02MPS 6000 SCT100 TXM16/1807Z TNM29/1823Z



MET'MAP, your aeronautical weather chart ! - Copyright ORBIFLY December 2007 - Disclaimer

ORBIFLY MET'MAP TEAM :

Programming & Development : Alexandra Zaïnal
Concept & original design : Baudouin d'Aumeries
Assistance for programming : Marc-Olivier Méhu
Technical & hardware support : Manuel Goepfert

Contact : metmap@orbifly.com




SOURCES & CREDITS :

   NOAA       Earth
Advisory